sensor_id;sensor_type;location;lat;lon;timestamp;P1;durP1;ratioP1;P2;durP2;ratioP2
59854;SDS011;45732;52.850;6.896;2023-05-07T00:01:08;18.30;;;15.52;;
59854;SDS011;45732;52.850;6.896;2023-05-07T00:03:36;19.75;;;15.57;;
59854;SDS011;45732;52.850;6.896;2023-05-07T00:06:02;16.98;;;14.93;;
59854;SDS011;45732;52.850;6.896;2023-05-07T00:08:28;18.42;;;15.88;;
59854;SDS011;45732;52.850;6.896;2023-05-07T00:10:54;20.55;;;16.73;;
59854;SDS011;45732;52.850;6.896;2023-05-07T00:13:20;18.83;;;15.75;;
59854;SDS011;45732;52.850;6.896;2023-05-07T00:15:45;18.63;;;15.40;;
59854;SDS011;45732;52.850;6.896;2023-05-07T00:18:11;18.23;;;15.88;;
59854;SDS011;45732;52.850;6.896;2023-05-07T00:20:37;19.80;;;17.10;;
59854;SDS011;45732;52.850;6.896;2023-05-07T00:23:02;20.65;;;16.42;;
59854;SDS011;45732;52.850;6.896;2023-05-07T00:25:28;22.48;;;16.88;;
59854;SDS011;45732;52.850;6.896;2023-05-07T00:27:54;19.83;;;17.13;;
59854;SDS011;45732;52.850;6.896;2023-05-07T00:30:19;19.85;;;16.88;;
59854;SDS011;45732;52.850;6.896;2023-05-07T00:32:45;19.27;;;16.90;;
59854;SDS011;45732;52.850;6.896;2023-05-07T00:35:11;19.98;;;17.00;;
59854;SDS011;45732;52.850;6.896;2023-05-07T00:37:37;19.67;;;16.63;;
59854;SDS011;45732;52.850;6.896;2023-05-07T00:40:03;19.73;;;17.30;;
59854;SDS011;45732;52.850;6.896;2023-05-07T00:42:32;19.70;;;16.85;;
59854;SDS011;45732;52.850;6.896;2023-05-07T00:44:58;20.90;;;17.30;;
59854;SDS011;45732;52.850;6.896;2023-05-07T00:47:24;18.20;;;15.90;;
59854;SDS011;45732;52.850;6.896;2023-05-07T00:49:50;20.52;;;17.27;;
59854;SDS011;45732;52.850;6.896;2023-05-07T00:52:17;20.67;;;16.88;;
59854;SDS011;45732;52.850;6.896;2023-05-07T00:54:45;21.33;;;17.27;;
59854;SDS011;45732;52.850;6.896;2023-05-07T00:57:11;21.70;;;17.00;;
59854;SDS011;45732;52.850;6.896;2023-05-07T00:59:37;22.60;;;18.48;;
59854;SDS011;45732;52.850;6.896;2023-05-07T01:02:03;20.35;;;17.05;;
59854;SDS011;45732;52.850;6.896;2023-05-07T01:04:29;22.58;;;18.23;;
59854;SDS011;45732;52.850;6.896;2023-05-07T01:06:55;24.08;;;18.52;;
59854;SDS011;45732;52.850;6.896;2023-05-07T01:09:24;20.25;;;18.05;;
59854;SDS011;45732;52.850;6.896;2023-05-07T01:11:50;20.42;;;16.80;;
59854;SDS011;45732;52.850;6.896;2023-05-07T01:14:17;21.33;;;18.05;;
59854;SDS011;45732;52.850;6.896;2023-05-07T01:16:44;21.35;;;18.25;;
59854;SDS011;45732;52.850;6.896;2023-05-07T01:19:10;23.63;;;18.83;;
59854;SDS011;45732;52.850;6.896;2023-05-07T01:21:38;22.17;;;19.27;;
59854;SDS011;45732;52.850;6.896;2023-05-07T01:24:10;22.90;;;19.73;;
59854;SDS011;45732;52.850;6.896;2023-05-07T01:26:36;21.67;;;18.85;;
59854;SDS011;45732;52.850;6.896;2023-05-07T01:29:03;22.60;;;20.20;;
59854;SDS011;45732;52.850;6.896;2023-05-07T01:31:29;23.35;;;20.33;;
59854;SDS011;45732;52.850;6.896;2023-05-07T01:33:55;22.60;;;18.48;;
59854;SDS011;45732;52.850;6.896;2023-05-07T01:36:24;22.92;;;19.88;;
59854;SDS011;45732;52.850;6.896;2023-05-07T01:38:52;22.58;;;19.92;;
59854;SDS011;45732;52.850;6.896;2023-05-07T01:41:18;25.45;;;19.90;;
59854;SDS011;45732;52.850;6.896;2023-05-07T01:43:45;23.15;;;19.27;;
59854;SDS011;45732;52.850;6.896;2023-05-07T01:46:12;23.80;;;21.15;;
59854;SDS011;45732;52.850;6.896;2023-05-07T01:48:39;27.80;;;20.60;;
59854;SDS011;45732;52.850;6.896;2023-05-07T01:51:05;25.13;;;21.20;;
59854;SDS011;45732;52.850;6.896;2023-05-07T01:53:37;25.73;;;20.70;;
59854;SDS011;45732;52.850;6.896;2023-05-07T01:56:03;25.45;;;22.63;;
59854;SDS011;45732;52.850;6.896;2023-05-07T01:58:30;26.05;;;21.73;;
59854;SDS011;45732;52.850;6.896;2023-05-07T02:00:56;25.30;;;22.58;;
59854;SDS011;45732;52.850;6.896;2023-05-07T02:03:21;28.67;;;23.15;;
59854;SDS011;45732;52.850;6.896;2023-05-07T02:05:47;27.98;;;24.20;;
59854;SDS011;45732;52.850;6.896;2023-05-07T02:08:13;29.52;;;23.38;;
59854;SDS011;45732;52.850;6.896;2023-05-07T02:10:39;30.02;;;24.80;;
59854;SDS011;45732;52.850;6.896;2023-05-07T02:13:04;29.27;;;23.95;;
59854;SDS011;45732;52.850;6.896;2023-05-07T02:15:30;30.00;;;24.25;;
59854;SDS011;45732;52.850;6.896;2023-05-07T02:18:00;28.42;;;23.77;;
59854;SDS011;45732;52.850;6.896;2023-05-07T02:20:31;30.42;;;26.20;;
59854;SDS011;45732;52.850;6.896;2023-05-07T02:22:56;32.55;;;25.23;;
59854;SDS011;45732;52.850;6.896;2023-05-07T02:25:22;31.55;;;26.52;;
59854;SDS011;45732;52.850;6.896;2023-05-07T02:27:48;32.42;;;27.50;;
59854;SDS011;45732;52.850;6.896;2023-05-07T02:30:14;31.95;;;26.40;;
59854;SDS011;45732;52.850;6.896;2023-05-07T02:32:40;32.45;;;26.80;;
59854;SDS011;45732;52.850;6.896;2023-05-07T02:35:05;32.67;;;26.63;;
59854;SDS011;45732;52.850;6.896;2023-05-07T02:37:31;34.65;;;27.88;;
59854;SDS011;45732;52.850;6.896;2023-05-07T02:39:57;34.00;;;28.20;;
59854;SDS011;45732;52.850;6.896;2023-05-07T02:42:22;34.55;;;27.92;;
59854;SDS011;45732;52.850;6.896;2023-05-07T02:44:48;34.97;;;28.25;;
59854;SDS011;45732;52.850;6.896;2023-05-07T02:47:14;35.67;;;29.38;;
59854;SDS011;45732;52.850;6.896;2023-05-07T02:49:40;34.58;;;29.25;;
59854;SDS011;45732;52.850;6.896;2023-05-07T02:52:06;34.20;;;27.70;;
59854;SDS011;45732;52.850;6.896;2023-05-07T02:54:32;33.40;;;28.08;;
59854;SDS011;45732;52.850;6.896;2023-05-07T02:56:58;34.58;;;28.17;;
59854;SDS011;45732;52.850;6.896;2023-05-07T02:59:25;35.03;;;28.58;;
59854;SDS011;45732;52.850;6.896;2023-05-07T03:01:51;38.60;;;29.83;;
59854;SDS011;45732;52.850;6.896;2023-05-07T03:04:17;36.22;;;28.40;;
59854;SDS011;45732;52.850;6.896;2023-05-07T03:06:42;34.83;;;28.95;;
59854;SDS011;45732;52.850;6.896;2023-05-07T03:09:08;36.33;;;28.83;;
59854;SDS011;45732;52.850;6.896;2023-05-07T03:11:34;37.08;;;29.25;;
59854;SDS011;45732;52.850;6.896;2023-05-07T03:14:00;34.55;;;28.10;;
59854;SDS011;45732;52.850;6.896;2023-05-07T03:16:26;37.28;;;30.92;;
59854;SDS011;45732;52.850;6.896;2023-05-07T03:18:52;36.00;;;28.73;;
59854;SDS011;45732;52.850;6.896;2023-05-07T03:21:18;37.60;;;29.20;;
59854;SDS011;45732;52.850;6.896;2023-05-07T03:23:44;36.63;;;30.13;;
59854;SDS011;45732;52.850;6.896;2023-05-07T03:26:10;35.92;;;29.38;;
59854;SDS011;45732;52.850;6.896;2023-05-07T03:28:36;35.67;;;29.35;;
59854;SDS011;45732;52.850;6.896;2023-05-07T03:31:02;36.00;;;29.85;;
59854;SDS011;45732;52.850;6.896;2023-05-07T03:33:27;34.63;;;28.92;;
59854;SDS011;45732;52.850;6.896;2023-05-07T03:35:53;33.88;;;27.90;;
59854;SDS011;45732;52.850;6.896;2023-05-07T03:38:19;34.53;;;27.65;;
59854;SDS011;45732;52.850;6.896;2023-05-07T03:40:45;32.10;;;28.33;;
59854;SDS011;45732;52.850;6.896;2023-05-07T03:43:10;32.53;;;27.38;;
59854;SDS011;45732;52.850;6.896;2023-05-07T03:45:36;31.50;;;27.50;;
59854;SDS011;45732;52.850;6.896;2023-05-07T03:48:02;29.98;;;25.80;;
59854;SDS011;45732;52.850;6.896;2023-05-07T03:50:28;33.95;;;26.65;;
59854;SDS011;45732;52.850;6.896;2023-05-07T03:52:53;29.90;;;25.40;;
59854;SDS011;45732;52.850;6.896;2023-05-07T03:55:19;31.60;;;26.50;;
59854;SDS011;45732;52.850;6.896;2023-05-07T03:57:45;30.67;;;26.50;;
59854;SDS011;45732;52.850;6.896;2023-05-07T04:00:11;30.02;;;25.05;;
59854;SDS011;45732;52.850;6.896;2023-05-07T04:02:37;29.50;;;25.52;;
59854;SDS011;45732;52.850;6.896;2023-05-07T04:05:03;32.25;;;26.17;;
59854;SDS011;45732;52.850;6.896;2023-05-07T04:07:28;30.00;;;25.63;;
59854;SDS011;45732;52.850;6.896;2023-05-07T04:09:54;29.27;;;25.20;;
59854;SDS011;45732;52.850;6.896;2023-05-07T04:12:20;28.42;;;25.00;;
59854;SDS011;45732;52.850;6.896;2023-05-07T04:14:46;27.88;;;24.20;;
59854;SDS011;45732;52.850;6.896;2023-05-07T04:17:11;29.83;;;25.92;;
59854;SDS011;45732;52.850;6.896;2023-05-07T04:19:37;28.08;;;24.27;;
59854;SDS011;45732;52.850;6.896;2023-05-07T04:22:03;28.95;;;25.20;;
59854;SDS011;45732;52.850;6.896;2023-05-07T04:24:31;27.80;;;24.08;;
59854;SDS011;45732;52.850;6.896;2023-05-07T04:26:58;28.20;;;24.23;;
59854;SDS011;45732;52.850;6.896;2023-05-07T04:29:23;28.05;;;25.08;;
59854;SDS011;45732;52.850;6.896;2023-05-07T04:31:49;27.65;;;23.27;;
59854;SDS011;45732;52.850;6.896;2023-05-07T04:34:15;27.20;;;23.42;;
59854;SDS011;45732;52.850;6.896;2023-05-07T04:36:41;28.02;;;23.70;;
59854;SDS011;45732;52.850;6.896;2023-05-07T04:39:07;28.90;;;24.35;;
59854;SDS011;45732;52.850;6.896;2023-05-07T04:41:34;28.00;;;23.63;;
59854;SDS011;45732;52.850;6.896;2023-05-07T04:44:01;27.30;;;24.17;;
59854;SDS011;45732;52.850;6.896;2023-05-07T04:46:29;30.38;;;24.92;;
59854;SDS011;45732;52.850;6.896;2023-05-07T04:48:55;28.17;;;23.85;;
59854;SDS011;45732;52.850;6.896;2023-05-07T04:51:21;28.20;;;23.40;;
59854;SDS011;45732;52.850;6.896;2023-05-07T04:53:47;27.05;;;23.35;;
59854;SDS011;45732;52.850;6.896;2023-05-07T04:56:13;27.33;;;23.60;;
59854;SDS011;45732;52.850;6.896;2023-05-07T04:58:39;30.10;;;25.15;;
59854;SDS011;45732;52.850;6.896;2023-05-07T05:01:05;26.70;;;23.63;;
59854;SDS011;45732;52.850;6.896;2023-05-07T05:03:31;29.67;;;24.55;;
59854;SDS011;45732;52.850;6.896;2023-05-07T05:05:56;29.35;;;24.00;;
59854;SDS011;45732;52.850;6.896;2023-05-07T05:08:24;27.85;;;22.65;;
59854;SDS011;45732;52.850;6.896;2023-05-07T05:10:50;27.48;;;24.00;;
59854;SDS011;45732;52.850;6.896;2023-05-07T05:13:16;28.05;;;25.13;;
59854;SDS011;45732;52.850;6.896;2023-05-07T05:15:42;29.23;;;25.17;;
59854;SDS011;45732;52.850;6.896;2023-05-07T05:18:08;26.67;;;23.60;;
59854;SDS011;45732;52.850;6.896;2023-05-07T05:20:34;26.73;;;23.83;;
59854;SDS011;45732;52.850;6.896;2023-05-07T05:22:59;27.17;;;24.27;;
59854;SDS011;45732;52.850;6.896;2023-05-07T05:25:25;29.20;;;24.30;;
59854;SDS011;45732;52.850;6.896;2023-05-07T05:27:51;28.02;;;24.20;;
59854;SDS011;45732;52.850;6.896;2023-05-07T05:30:16;30.52;;;25.00;;
59854;SDS011;45732;52.850;6.896;2023-05-07T05:32:42;27.77;;;23.95;;
59854;SDS011;45732;52.850;6.896;2023-05-07T05:35:08;27.05;;;23.58;;
59854;SDS011;45732;52.850;6.896;2023-05-07T05:37:33;29.63;;;24.02;;
59854;SDS011;45732;52.850;6.896;2023-05-07T05:39:59;27.58;;;24.23;;
59854;SDS011;45732;52.850;6.896;2023-05-07T05:42:25;30.08;;;23.55;;
59854;SDS011;45732;52.850;6.896;2023-05-07T05:44:50;28.90;;;24.50;;
59854;SDS011;45732;52.850;6.896;2023-05-07T05:47:16;27.33;;;23.25;;
59854;SDS011;45732;52.850;6.896;2023-05-07T05:49:42;28.85;;;24.77;;
59854;SDS011;45732;52.850;6.896;2023-05-07T05:52:08;30.98;;;24.95;;
59854;SDS011;45732;52.850;6.896;2023-05-07T05:54:35;27.13;;;23.50;;
59854;SDS011;45732;52.850;6.896;2023-05-07T05:57:00;27.75;;;24.73;;
59854;SDS011;45732;52.850;6.896;2023-05-07T05:59:29;26.85;;;23.58;;
59854;SDS011;45732;52.850;6.896;2023-05-07T06:01:54;31.27;;;23.45;;
59854;SDS011;45732;52.850;6.896;2023-05-07T06:04:20;28.95;;;24.60;;
59854;SDS011;45732;52.850;6.896;2023-05-07T06:06:46;29.65;;;24.77;;
59854;SDS011;45732;52.850;6.896;2023-05-07T06:09:12;29.52;;;25.48;;
59854;SDS011;45732;52.850;6.896;2023-05-07T06:11:37;28.05;;;24.33;;
59854;SDS011;45732;52.850;6.896;2023-05-07T06:14:03;28.17;;;24.00;;
59854;SDS011;45732;52.850;6.896;2023-05-07T06:16:29;28.58;;;25.13;;
59854;SDS011;45732;52.850;6.896;2023-05-07T06:18:54;28.27;;;24.67;;
59854;SDS011;45732;52.850;6.896;2023-05-07T06:21:20;30.33;;;25.38;;
59854;SDS011;45732;52.850;6.896;2023-05-07T06:23:46;28.40;;;25.13;;
59854;SDS011;45732;52.850;6.896;2023-05-07T06:26:12;30.05;;;25.27;;
59854;SDS011;45732;52.850;6.896;2023-05-07T06:28:37;28.90;;;25.15;;
59854;SDS011;45732;52.850;6.896;2023-05-07T06:31:12;29.45;;;25.05;;
59854;SDS011;45732;52.850;6.896;2023-05-07T06:33:42;28.13;;;24.23;;
59854;SDS011;45732;52.850;6.896;2023-05-07T06:36:09;28.17;;;24.60;;
59854;SDS011;45732;52.850;6.896;2023-05-07T06:38:35;32.00;;;25.83;;
59854;SDS011;45732;52.850;6.896;2023-05-07T06:41:01;29.25;;;24.13;;
59854;SDS011;45732;52.850;6.896;2023-05-07T06:43:27;29.52;;;24.80;;
59854;SDS011;45732;52.850;6.896;2023-05-07T06:45:52;29.65;;;26.38;;
59854;SDS011;45732;52.850;6.896;2023-05-07T06:48:18;29.77;;;24.58;;
59854;SDS011;45732;52.850;6.896;2023-05-07T06:50:44;28.00;;;23.70;;
59854;SDS011;45732;52.850;6.896;2023-05-07T06:53:10;27.35;;;23.90;;
59854;SDS011;45732;52.850;6.896;2023-05-07T06:55:36;27.77;;;24.17;;
59854;SDS011;45732;52.850;6.896;2023-05-07T06:58:03;31.38;;;25.30;;
59854;SDS011;45732;52.850;6.896;2023-05-07T07:00:29;31.67;;;25.92;;
59854;SDS011;45732;52.850;6.896;2023-05-07T07:02:56;31.52;;;26.15;;
59854;SDS011;45732;52.850;6.896;2023-05-07T07:05:21;30.90;;;25.85;;
59854;SDS011;45732;52.850;6.896;2023-05-07T07:07:47;31.08;;;26.20;;
59854;SDS011;45732;52.850;6.896;2023-05-07T07:10:20;30.98;;;26.33;;
59854;SDS011;45732;52.850;6.896;2023-05-07T07:12:47;31.27;;;27.30;;
59854;SDS011;45732;52.850;6.896;2023-05-07T07:15:14;30.80;;;26.25;;
59854;SDS011;45732;52.850;6.896;2023-05-07T07:17:40;29.85;;;25.65;;
59854;SDS011;45732;52.850;6.896;2023-05-07T07:20:05;29.05;;;24.95;;
59854;SDS011;45732;52.850;6.896;2023-05-07T07:22:32;31.08;;;25.70;;
59854;SDS011;45732;52.850;6.896;2023-05-07T07:24:57;29.98;;;25.92;;
59854;SDS011;45732;52.850;6.896;2023-05-07T07:27:23;31.80;;;26.40;;
59854;SDS011;45732;52.850;6.896;2023-05-07T07:29:49;34.10;;;27.77;;
59854;SDS011;45732;52.850;6.896;2023-05-07T07:32:15;36.28;;;27.00;;
59854;SDS011;45732;52.850;6.896;2023-05-07T07:34:40;31.38;;;25.83;;
59854;SDS011;45732;52.850;6.896;2023-05-07T07:37:06;32.55;;;26.83;;
59854;SDS011;45732;52.850;6.896;2023-05-07T07:39:32;30.45;;;26.77;;
59854;SDS011;45732;52.850;6.896;2023-05-07T07:41:58;31.60;;;26.58;;
59854;SDS011;45732;52.850;6.896;2023-05-07T07:44:24;31.80;;;25.73;;
59854;SDS011;45732;52.850;6.896;2023-05-07T07:46:50;28.13;;;24.73;;
59854;SDS011;45732;52.850;6.896;2023-05-07T07:49:16;29.50;;;25.25;;
59854;SDS011;45732;52.850;6.896;2023-05-07T07:51:42;31.50;;;26.10;;
59854;SDS011;45732;52.850;6.896;2023-05-07T07:54:08;29.05;;;25.23;;
59854;SDS011;45732;52.850;6.896;2023-05-07T07:56:33;29.55;;;25.13;;
59854;SDS011;45732;52.850;6.896;2023-05-07T07:58:59;30.83;;;25.60;;
59854;SDS011;45732;52.850;6.896;2023-05-07T08:01:25;29.35;;;25.75;;
59854;SDS011;45732;52.850;6.896;2023-05-07T08:03:51;27.85;;;24.65;;
59854;SDS011;45732;52.850;6.896;2023-05-07T08:06:17;30.77;;;26.17;;
59854;SDS011;45732;52.850;6.896;2023-05-07T08:08:43;29.40;;;25.73;;
59854;SDS011;45732;52.850;6.896;2023-05-07T08:11:09;29.35;;;25.77;;
59854;SDS011;45732;52.850;6.896;2023-05-07T08:13:35;29.88;;;25.15;;
59854;SDS011;45732;52.850;6.896;2023-05-07T08:16:01;29.65;;;25.33;;
59854;SDS011;45732;52.850;6.896;2023-05-07T08:18:27;29.67;;;26.48;;
59854;SDS011;45732;52.850;6.896;2023-05-07T08:20:54;28.77;;;25.35;;
59854;SDS011;45732;52.850;6.896;2023-05-07T08:23:20;30.55;;;25.42;;
59854;SDS011;45732;52.850;6.896;2023-05-07T08:25:46;30.90;;;25.67;;
59854;SDS011;45732;52.850;6.896;2023-05-07T08:28:12;27.30;;;24.40;;
59854;SDS011;45732;52.850;6.896;2023-05-07T08:30:37;27.60;;;24.00;;
59854;SDS011;45732;52.850;6.896;2023-05-07T08:33:03;26.05;;;23.02;;
59854;SDS011;45732;52.850;6.896;2023-05-07T08:35:29;28.13;;;24.05;;
59854;SDS011;45732;52.850;6.896;2023-05-07T08:37:55;27.15;;;24.25;;
59854;SDS011;45732;52.850;6.896;2023-05-07T08:40:22;25.67;;;22.67;;
59854;SDS011;45732;52.850;6.896;2023-05-07T08:42:52;26.52;;;23.42;;
59854;SDS011;45732;52.850;6.896;2023-05-07T08:45:19;26.75;;;23.42;;
59854;SDS011;45732;52.850;6.896;2023-05-07T08:47:54;27.08;;;23.48;;
59854;SDS011;45732;52.850;6.896;2023-05-07T08:50:24;26.83;;;23.17;;
59854;SDS011;45732;52.850;6.896;2023-05-07T08:52:50;26.20;;;23.35;;
59854;SDS011;45732;52.850;6.896;2023-05-07T08:55:16;25.10;;;22.33;;
59854;SDS011;45732;52.850;6.896;2023-05-07T08:57:42;25.85;;;22.27;;
59854;SDS011;45732;52.850;6.896;2023-05-07T09:00:08;25.13;;;22.45;;
59854;SDS011;45732;52.850;6.896;2023-05-07T09:02:35;24.27;;;21.58;;
59854;SDS011;45732;52.850;6.896;2023-05-07T09:05:01;25.58;;;21.25;;
59854;SDS011;45732;52.850;6.896;2023-05-07T09:07:28;23.48;;;20.77;;
59854;SDS011;45732;52.850;6.896;2023-05-07T09:09:54;22.40;;;20.00;;
59854;SDS011;45732;52.850;6.896;2023-05-07T09:12:20;24.60;;;20.25;;
59854;SDS011;45732;52.850;6.896;2023-05-07T09:14:46;22.73;;;20.23;;
59854;SDS011;45732;52.850;6.896;2023-05-07T09:17:12;23.48;;;20.98;;
59854;SDS011;45732;52.850;6.896;2023-05-07T09:19:40;23.58;;;21.10;;
59854;SDS011;45732;52.850;6.896;2023-05-07T09:22:06;21.52;;;19.20;;
59854;SDS011;45732;52.850;6.896;2023-05-07T09:24:34;21.98;;;18.80;;
59854;SDS011;45732;52.850;6.896;2023-05-07T09:27:03;21.42;;;19.23;;
59854;SDS011;45732;52.850;6.896;2023-05-07T09:29:30;21.85;;;19.17;;
59854;SDS011;45732;52.850;6.896;2023-05-07T09:32:00;20.55;;;18.27;;
59854;SDS011;45732;52.850;6.896;2023-05-07T09:34:28;20.00;;;17.90;;
59854;SDS011;45732;52.850;6.896;2023-05-07T09:36:55;21.05;;;18.85;;
59854;SDS011;45732;52.850;6.896;2023-05-07T09:39:21;21.58;;;19.15;;
59854;SDS011;45732;52.850;6.896;2023-05-07T09:41:48;20.80;;;17.65;;
59854;SDS011;45732;52.850;6.896;2023-05-07T09:44:16;19.48;;;17.38;;
59854;SDS011;45732;52.850;6.896;2023-05-07T09:46:43;20.35;;;17.42;;
59854;SDS011;45732;52.850;6.896;2023-05-07T09:49:16;20.27;;;18.08;;
59854;SDS011;45732;52.850;6.896;2023-05-07T09:51:50;19.17;;;17.05;;
59854;SDS011;45732;52.850;6.896;2023-05-07T09:54:17;20.70;;;18.48;;
59854;SDS011;45732;52.850;6.896;2023-05-07T09:56:50;19.98;;;17.88;;
59854;SDS011;45732;52.850;6.896;2023-05-07T09:59:17;19.42;;;17.23;;
59854;SDS011;45732;52.850;6.896;2023-05-07T10:01:45;20.27;;;17.33;;
59854;SDS011;45732;52.850;6.896;2023-05-07T10:04:11;19.27;;;17.20;;
59854;SDS011;45732;52.850;6.896;2023-05-07T10:06:37;20.52;;;16.95;;
59854;SDS011;45732;52.850;6.896;2023-05-07T10:09:04;20.25;;;17.45;;
59854;SDS011;45732;52.850;6.896;2023-05-07T10:11:31;19.10;;;17.00;;
59854;SDS011;45732;52.850;6.896;2023-05-07T10:13:59;23.70;;;18.23;;
59854;SDS011;45732;52.850;6.896;2023-05-07T10:16:27;18.55;;;16.33;;
59854;SDS011;45732;52.850;6.896;2023-05-07T10:19:04;19.85;;;17.58;;
59854;SDS011;45732;52.850;6.896;2023-05-07T10:21:33;21.52;;;19.23;;
59854;SDS011;45732;52.850;6.896;2023-05-07T10:24:07;20.20;;;17.23;;
59854;SDS011;45732;52.850;6.896;2023-05-07T10:26:39;19.35;;;17.35;;
59854;SDS011;45732;52.850;6.896;2023-05-07T10:34:29;19.45;;;17.45;;
59854;SDS011;45732;52.850;6.896;2023-05-07T10:37:00;20.10;;;18.00;;
59854;SDS011;45732;52.850;6.896;2023-05-07T10:39:27;19.10;;;17.10;;
59854;SDS011;45732;52.850;6.896;2023-05-07T10:41:53;20.17;;;18.08;;
59854;SDS011;45732;52.850;6.896;2023-05-07T10:44:26;21.77;;;18.75;;
59854;SDS011;45732;52.850;6.896;2023-05-07T10:47:10;20.17;;;17.98;;
59854;SDS011;45732;52.850;6.896;2023-05-07T10:50:23;21.55;;;18.35;;
59854;SDS011;45732;52.850;6.896;2023-05-07T10:52:30;19.75;;;17.73;;
59854;SDS011;45732;52.850;6.896;2023-05-07T10:57:39;20.48;;;18.38;;
59854;SDS011;45732;52.850;6.896;2023-05-07T11:00:50;21.73;;;19.42;;
59854;SDS011;45732;52.850;6.896;2023-05-07T11:03:09;19.88;;;17.85;;
59854;SDS011;45732;52.850;6.896;2023-05-07T11:05:36;20.85;;;18.65;;
59854;SDS011;45732;52.850;6.896;2023-05-07T11:08:03;20.58;;;18.35;;
59854;SDS011;45732;52.850;6.896;2023-05-07T11:13:17;20.63;;;18.25;;
59854;SDS011;45732;52.850;6.896;2023-05-07T11:15:44;21.02;;;18.25;;
59854;SDS011;45732;52.850;6.896;2023-05-07T11:18:12;20.30;;;17.75;;
59854;SDS011;45732;52.850;6.896;2023-05-07T11:20:49;21.02;;;18.00;;
59854;SDS011;45732;52.850;6.896;2023-05-07T11:26:02;20.20;;;17.52;;
59854;SDS011;45732;52.850;6.896;2023-05-07T11:28:28;19.23;;;17.33;;
59854;SDS011;45732;52.850;6.896;2023-05-07T11:30:55;20.15;;;17.27;;
59854;SDS011;45732;52.850;6.896;2023-05-07T11:33:22;19.30;;;17.20;;
59854;SDS011;45732;52.850;6.896;2023-05-07T11:35:48;19.55;;;17.45;;
59854;SDS011;45732;52.850;6.896;2023-05-07T11:38:15;19.13;;;17.13;;
59854;SDS011;45732;52.850;6.896;2023-05-07T11:40:52;18.85;;;16.85;;
59854;SDS011;45732;52.850;6.896;2023-05-07T11:43:20;17.83;;;15.90;;
59854;SDS011;45732;52.850;6.896;2023-05-07T11:45:46;17.05;;;15.25;;
59854;SDS011;45732;52.850;6.896;2023-05-07T11:48:13;18.00;;;14.90;;
59854;SDS011;45732;52.850;6.896;2023-05-07T11:50:52;18.40;;;16.50;;
59854;SDS011;45732;52.850;6.896;2023-05-07T11:53:19;18.88;;;16.27;;
59854;SDS011;45732;52.850;6.896;2023-05-07T11:55:52;18.92;;;17.00;;
59854;SDS011;45732;52.850;6.896;2023-05-07T11:58:22;18.60;;;16.70;;
59854;SDS011;45732;52.850;6.896;2023-05-07T12:00:53;16.88;;;15.18;;
59854;SDS011;45732;52.850;6.896;2023-05-07T12:03:19;18.02;;;16.10;;
59854;SDS011;45732;52.850;6.896;2023-05-07T12:05:46;17.83;;;16.02;;
59854;SDS011;45732;52.850;6.896;2023-05-07T12:08:19;19.95;;;16.02;;
59854;SDS011;45732;52.850;6.896;2023-05-07T12:10:46;17.75;;;15.90;;
59854;SDS011;45732;52.850;6.896;2023-05-07T12:13:25;19.40;;;15.55;;
59854;SDS011;45732;52.850;6.896;2023-05-07T12:15:52;17.10;;;15.30;;
59854;SDS011;45732;52.850;6.896;2023-05-07T12:18:19;17.95;;;16.05;;
59854;SDS011;45732;52.850;6.896;2023-05-07T12:20:45;17.52;;;15.40;;
59854;SDS011;45732;52.850;6.896;2023-05-07T12:23:12;16.92;;;15.13;;
59854;SDS011;45732;52.850;6.896;2023-05-07T12:25:38;17.77;;;15.05;;
59854;SDS011;45732;52.850;6.896;2023-05-07T12:28:05;15.90;;;14.25;;
59854;SDS011;45732;52.850;6.896;2023-05-07T12:30:36;16.13;;;14.07;;
59854;SDS011;45732;52.850;6.896;2023-05-07T12:33:02;15.98;;;14.20;;
59854;SDS011;45732;52.850;6.896;2023-05-07T12:35:28;15.43;;;13.82;;
59854;SDS011;45732;52.850;6.896;2023-05-07T12:37:56;14.98;;;13.38;;
59854;SDS011;45732;52.850;6.896;2023-05-07T12:40:24;15.65;;;14.05;;
59854;SDS011;45732;52.850;6.896;2023-05-07T12:42:52;16.60;;;14.30;;
59854;SDS011;45732;52.850;6.896;2023-05-07T12:45:20;15.65;;;13.75;;
59854;SDS011;45732;52.850;6.896;2023-05-07T12:47:46;15.15;;;13.55;;
59854;SDS011;45732;52.850;6.896;2023-05-07T12:50:12;14.52;;;13.00;;
59854;SDS011;45732;52.850;6.896;2023-05-07T12:52:39;15.65;;;13.50;;
59854;SDS011;45732;52.850;6.896;2023-05-07T12:55:08;15.38;;;13.77;;
59854;SDS011;45732;52.850;6.896;2023-05-07T12:57:37;15.57;;;14.00;;
59854;SDS011;45732;52.850;6.896;2023-05-07T13:00:04;15.23;;;13.73;;
59854;SDS011;45732;52.850;6.896;2023-05-07T13:02:37;15.80;;;14.05;;
59854;SDS011;45732;52.850;6.896;2023-05-07T13:05:04;15.20;;;13.60;;
59854;SDS011;45732;52.850;6.896;2023-05-07T13:07:30;15.52;;;14.02;;
59854;SDS011;45732;52.850;6.896;2023-05-07T13:09:55;15.32;;;13.82;;
59854;SDS011;45732;52.850;6.896;2023-05-07T13:12:21;15.45;;;13.95;;
59854;SDS011;45732;52.850;6.896;2023-05-07T13:14:47;15.38;;;13.88;;
59854;SDS011;45732;52.850;6.896;2023-05-07T13:17:12;15.70;;;13.90;;
59854;SDS011;45732;52.850;6.896;2023-05-07T13:19:38;15.07;;;13.57;;
59854;SDS011;45732;52.850;6.896;2023-05-07T13:22:05;14.52;;;13.13;;
59854;SDS011;45732;52.850;6.896;2023-05-07T13:24:31;14.82;;;13.32;;
59854;SDS011;45732;52.850;6.896;2023-05-07T13:26:56;14.93;;;13.43;;
59854;SDS011;45732;52.850;6.896;2023-05-07T13:29:22;15.45;;;13.77;;
59854;SDS011;45732;52.850;6.896;2023-05-07T13:34:23;15.93;;;14.30;;
59854;SDS011;45732;52.850;6.896;2023-05-07T13:36:48;15.07;;;13.48;;
59854;SDS011;45732;52.850;6.896;2023-05-07T13:39:14;15.68;;;14.07;;
59854;SDS011;45732;52.850;6.896;2023-05-07T13:41:40;15.57;;;14.07;;
59854;SDS011;45732;52.850;6.896;2023-05-07T13:44:06;14.70;;;13.27;;
59854;SDS011;45732;52.850;6.896;2023-05-07T13:46:32;14.18;;;12.88;;
59854;SDS011;45732;52.850;6.896;2023-05-07T13:48:57;14.73;;;13.32;;
59854;SDS011;45732;52.850;6.896;2023-05-07T13:51:23;14.80;;;13.30;;
59854;SDS011;45732;52.850;6.896;2023-05-07T13:53:49;14.32;;;12.85;;
59854;SDS011;45732;52.850;6.896;2023-05-07T13:56:15;13.40;;;12.05;;
59854;SDS011;45732;52.850;6.896;2023-05-07T13:58:41;13.90;;;12.13;;
59854;SDS011;45732;52.850;6.896;2023-05-07T14:01:07;13.63;;;12.23;;
59854;SDS011;45732;52.850;6.896;2023-05-07T14:03:32;13.50;;;12.20;;
59854;SDS011;45732;52.850;6.896;2023-05-07T14:05:59;13.82;;;12.43;;
59854;SDS011;45732;52.850;6.896;2023-05-07T14:08:26;13.43;;;12.13;;
59854;SDS011;45732;52.850;6.896;2023-05-07T14:10:52;14.15;;;11.70;;
59854;SDS011;45732;52.850;6.896;2023-05-07T14:13:18;13.68;;;12.30;;
59854;SDS011;45732;52.850;6.896;2023-05-07T14:15:44;13.13;;;11.73;;
59854;SDS011;45732;52.850;6.896;2023-05-07T14:18:14;13.32;;;12.02;;
59854;SDS011;45732;52.850;6.896;2023-05-07T14:20:41;12.65;;;11.38;;
59854;SDS011;45732;52.850;6.896;2023-05-07T14:23:08;13.48;;;12.18;;
59854;SDS011;45732;52.850;6.896;2023-05-07T14:25:34;13.25;;;11.95;;
59854;SDS011;45732;52.850;6.896;2023-05-07T14:28:00;13.55;;;12.18;;
59854;SDS011;45732;52.850;6.896;2023-05-07T14:30:26;14.95;;;12.73;;
59854;SDS011;45732;52.850;6.896;2023-05-07T14:32:51;13.60;;;12.20;;
59854;SDS011;45732;52.850;6.896;2023-05-07T14:35:17;14.20;;;12.70;;